createdAt,value
2019-05-23T00:00:34.492Z,20.50
2019-05-23T00:03:24.438Z,20.50
2019-05-23T00:06:20.463Z,20.50
2019-05-23T00:09:09.839Z,20.40
2019-05-23T00:11:41.409Z,20.50
2019-05-23T00:14:32.328Z,20.40
2019-05-23T00:17:02.432Z,20.50
2019-05-23T00:19:33.856Z,20.50
2019-05-23T00:22:04.134Z,20.50
2019-05-23T00:24:34.985Z,20.50
2019-05-23T00:27:06.624Z,20.50
2019-05-23T00:29:40.407Z,20.50
2019-05-23T00:32:23.294Z,20.50
2019-05-23T00:34:54.290Z,20.50
2019-05-23T00:37:24.576Z,20.50
2019-05-23T00:39:54.635Z,20.50
2019-05-23T00:42:26.167Z,20.50
2019-05-23T00:44:57.420Z,20.50
2019-05-23T00:47:28.011Z,20.50
2019-05-23T00:49:58.095Z,20.50
2019-05-23T00:52:29.743Z,20.50
2019-05-23T00:54:59.740Z,20.50
2019-05-23T00:57:31.544Z,20.50
2019-05-23T01:00:00.764Z,20.50
2019-05-23T01:02:31.863Z,20.50
2019-05-23T01:05:02.408Z,20.50
2019-05-23T01:07:32.728Z,20.50
2019-05-23T01:10:05.680Z,20.50
2019-05-23T01:12:37.335Z,20.60
2019-05-23T01:15:09.955Z,20.60
2019-05-23T01:17:40.247Z,20.60
2019-05-23T01:20:13.269Z,20.60
2019-05-23T01:22:43.824Z,20.60
2019-05-23T01:25:16.040Z,20.60
2019-05-23T01:27:46.404Z,20.60
2019-05-23T01:30:36.304Z,20.60
2019-05-23T01:33:06.744Z,20.60
2019-05-23T01:35:37.485Z,20.60
2019-05-23T01:38:07.975Z,20.60
2019-05-23T01:40:38.089Z,20.60
2019-05-23T01:43:08.078Z,20.60
2019-05-23T01:45:40.433Z,20.60
2019-05-23T01:48:11.265Z,20.60
2019-05-23T01:50:41.205Z,20.60
2019-05-23T01:53:11.954Z,20.60
2019-05-23T01:55:42.621Z,20.60
2019-05-23T01:58:13.468Z,20.60
2019-05-23T02:00:44.487Z,20.60
2019-05-23T02:03:15.121Z,20.60
2019-05-23T02:05:45.128Z,20.60
2019-05-23T02:08:16.426Z,20.60
2019-05-23T02:10:47.476Z,20.60
2019-05-23T02:13:17.744Z,20.60
2019-05-23T02:15:48.647Z,20.60
2019-05-23T02:18:20.303Z,20.60
2019-05-23T02:20:50.886Z,20.60
2019-05-23T02:23:21.505Z,20.60
2019-05-23T02:25:51.727Z,20.60
2019-05-23T02:28:22.083Z,20.60
2019-05-23T02:30:52.804Z,20.60
2019-05-23T02:33:22.789Z,20.50
2019-05-23T02:35:52.924Z,20.60
2019-05-23T02:38:30.080Z,20.60
2019-05-23T02:41:04.673Z,20.60
2019-05-23T02:43:36.173Z,20.60
2019-05-23T02:46:11.169Z,20.60
2019-05-23T02:48:44.090Z,20.60
2019-05-23T02:51:30.236Z,20.60
2019-05-23T02:54:04.143Z,20.60
2019-05-23T02:56:36.016Z,20.60
2019-05-23T02:59:10.921Z,20.50
2019-05-23T03:01:48.221Z,20.60
2019-05-23T03:04:20.946Z,20.60
2019-05-23T03:06:51.705Z,20.60
2019-05-23T03:09:23.844Z,20.60
2019-05-23T03:11:56.961Z,20.60
2019-05-23T03:14:27.841Z,20.60
2019-05-23T03:16:59.958Z,20.60
2019-05-23T03:19:42.509Z,20.60
2019-05-23T03:22:49.014Z,20.60
2019-05-23T03:25:38.241Z,20.60
2019-05-23T03:28:12.607Z,20.60
2019-05-23T03:30:44.950Z,20.60
2019-05-23T03:33:15.840Z,20.60
2019-05-23T03:35:56.506Z,20.60
2019-05-23T03:38:27.017Z,20.60
2019-05-23T03:40:57.005Z,20.60
2019-05-23T03:43:28.244Z,20.60
2019-05-23T03:46:09.366Z,20.60
2019-05-23T03:48:40.644Z,20.60
2019-05-23T03:51:10.569Z,20.60
2019-05-23T03:53:42.561Z,20.60
2019-05-23T03:56:13.522Z,20.60
2019-05-23T03:58:45.017Z,20.60
2019-05-23T04:01:16.175Z,20.60
2019-05-23T04:03:48.185Z,20.60
2019-05-23T04:06:18.562Z,20.60
2019-05-23T04:08:49.629Z,20.60
2019-05-23T04:11:20.228Z,20.60
2019-05-23T04:13:50.913Z,20.60
2019-05-23T04:16:21.070Z,20.60
2019-05-23T04:18:51.412Z,20.60
2019-05-23T04:21:24.921Z,20.60
2019-05-23T04:23:55.893Z,20.60
2019-05-23T04:26:26.911Z,20.60
2019-05-23T04:28:56.896Z,20.60
2019-05-23T04:31:27.368Z,20.60
2019-05-23T04:33:57.415Z,20.50
2019-05-23T04:36:28.666Z,20.60
2019-05-23T04:38:59.347Z,20.60
2019-05-23T04:41:30.004Z,20.60
2019-05-23T04:43:59.923Z,20.60
2019-05-23T04:46:29.857Z,20.60
2019-05-23T04:49:00.406Z,20.60
2019-05-23T04:51:31.003Z,20.60
2019-05-23T04:54:01.920Z,20.60
2019-05-23T04:56:32.270Z,20.60
2019-05-23T04:59:03.457Z,20.60
2019-05-23T05:01:34.209Z,20.60
2019-05-23T05:04:06.053Z,20.60
2019-05-23T05:06:36.169Z,20.60
2019-05-23T05:09:08.641Z,20.60
2019-05-23T05:11:38.658Z,20.60
2019-05-23T05:14:09.299Z,20.60
2019-05-23T05:16:39.653Z,20.60
2019-05-23T05:19:10.136Z,20.60
2019-05-23T05:21:40.333Z,20.60
2019-05-23T05:24:10.341Z,20.60
2019-05-23T05:26:40.637Z,20.60
2019-05-23T05:29:10.918Z,20.60
2019-05-23T05:31:40.834Z,20.60
2019-05-23T05:34:10.845Z,20.60
2019-05-23T05:36:41.326Z,20.60
2019-05-23T05:39:12.875Z,20.60
2019-05-23T05:41:43.171Z,20.60
2019-05-23T05:44:14.024Z,20.60
2019-05-23T05:46:43.948Z,20.60
2019-05-23T05:49:14.442Z,20.60
2019-05-23T05:51:44.751Z,20.60
2019-05-23T05:54:15.344Z,20.60
2019-05-23T05:56:45.308Z,20.60
2019-05-23T05:59:15.226Z,20.60
2019-05-23T06:01:46.556Z,20.60
2019-05-23T06:04:16.485Z,20.60
2019-05-23T06:06:54.146Z,20.60
2019-05-23T06:09:25.785Z,20.60
2019-05-23T06:11:55.805Z,20.60
2019-05-23T06:14:25.899Z,20.60
2019-05-23T06:16:56.634Z,20.60
2019-05-23T06:19:26.883Z,20.60
2019-05-23T06:21:56.826Z,20.60
2019-05-23T06:24:42.357Z,20.70
2019-05-23T06:26:58.837Z,20.60
2019-05-23T06:29:28.998Z,20.70
2019-05-23T06:32:00.131Z,20.60
2019-05-23T06:34:30.281Z,20.70
2019-05-23T06:37:00.462Z,20.70
2019-05-23T06:39:31.199Z,20.70
2019-05-23T06:42:01.129Z,20.70
2019-05-23T06:44:31.641Z,20.70
2019-05-23T06:47:01.831Z,20.70
2019-05-23T06:49:31.948Z,20.70
2019-05-23T06:52:01.958Z,20.70
2019-05-23T06:54:32.112Z,20.70
2019-05-23T06:57:02.138Z,20.70
2019-05-23T06:59:32.056Z,20.70
2019-05-23T07:02:03.052Z,20.70
2019-05-23T07:04:33.216Z,20.70
2019-05-23T07:07:04.572Z,20.70
2019-05-23T07:09:34.972Z,20.70
2019-05-23T07:12:05.589Z,20.70
2019-05-23T07:14:36.655Z,20.70
2019-05-23T07:17:06.783Z,20.70
2019-05-23T07:19:36.728Z,20.70
2019-05-23T07:22:06.657Z,20.70
2019-05-23T07:24:36.573Z,20.70
2019-05-23T07:27:06.527Z,20.80
2019-05-23T07:29:37.088Z,20.80
2019-05-23T07:32:07.465Z,20.80
2019-05-23T07:34:37.406Z,20.80
2019-05-23T07:37:07.436Z,20.80
2019-05-23T07:39:37.431Z,20.70
2019-05-23T07:42:08.102Z,20.80
2019-05-23T07:44:47.958Z,20.80
2019-05-23T07:47:11.973Z,20.80
2019-05-23T07:49:41.899Z,20.80
2019-05-23T07:52:11.813Z,20.80
2019-05-23T07:54:49.446Z,20.80
2019-05-23T07:57:19.945Z,20.80
2019-05-23T07:59:50.525Z,20.80
2019-05-23T08:02:26.134Z,20.80
2019-05-23T08:04:57.042Z,20.80
2019-05-23T08:07:27.321Z,20.80
2019-05-23T08:09:57.562Z,20.80
2019-05-23T08:12:28.813Z,20.80
2019-05-23T08:14:59.025Z,20.80
2019-05-23T08:17:29.185Z,20.80
2019-05-23T08:19:59.068Z,20.80
2019-05-23T08:22:29.430Z,20.80
2019-05-23T08:24:59.442Z,20.80
2019-05-23T08:27:29.432Z,20.80
2019-05-23T08:30:02.197Z,20.80
2019-05-23T08:32:31.729Z,20.80
2019-05-23T08:35:03.333Z,20.70
2019-05-23T08:37:34.041Z,20.80
2019-05-23T08:40:06.113Z,20.80
2019-05-23T08:42:37.353Z,20.70
2019-05-23T08:45:09.270Z,20.80
2019-05-23T08:47:38.832Z,20.80
2019-05-23T08:50:10.409Z,20.80
2019-05-23T08:52:40.598Z,20.80
2019-05-23T08:55:25.451Z,20.80
2019-05-23T08:57:56.527Z,20.80
2019-05-23T09:00:28.445Z,20.80
2019-05-23T09:02:59.259Z,20.80
2019-05-23T09:05:31.563Z,20.80
2019-05-23T09:08:01.883Z,20.80
2019-05-23T09:10:32.856Z,20.70
2019-05-23T09:13:03.677Z,20.80
2019-05-23T09:15:33.788Z,20.80
2019-05-23T09:18:04.792Z,20.70
2019-05-23T09:20:34.959Z,20.70
2019-05-23T09:23:05.376Z,20.70
2019-05-23T09:25:35.689Z,20.70
2019-05-23T09:28:06.866Z,20.70
2019-05-23T09:30:37.044Z,20.70
2019-05-23T09:33:07.105Z,20.80
2019-05-23T09:35:37.323Z,20.80
2019-05-23T09:38:07.420Z,20.80
2019-05-23T09:40:37.500Z,20.80
2019-05-23T09:43:08.240Z,20.80
2019-05-23T09:45:38.709Z,20.80
2019-05-23T09:48:08.931Z,20.80
2019-05-23T09:50:38.926Z,20.70
2019-05-23T09:53:09.005Z,20.70
2019-05-23T09:55:39.187Z,20.70
2019-05-23T09:58:09.290Z,20.70
2019-05-23T10:00:40.573Z,20.70
2019-05-23T10:03:10.760Z,20.70
2019-05-23T10:05:43.855Z,20.70
2019-05-23T10:08:12.951Z,20.70
2019-05-23T10:10:43.234Z,20.70
2019-05-23T10:13:14.467Z,20.70
2019-05-23T10:15:49.811Z,20.70
2019-05-23T10:18:22.944Z,20.70
2019-05-23T10:20:53.128Z,20.70
2019-05-23T10:23:23.113Z,20.70
2019-05-23T10:25:53.062Z,20.70
2019-05-23T10:28:23.184Z,20.70
2019-05-23T10:30:53.123Z,20.70
2019-05-23T10:33:23.034Z,20.70
2019-05-23T10:36:00.561Z,20.70
2019-05-23T10:38:29.163Z,20.70
2019-05-23T10:40:58.065Z,20.70
2019-05-23T10:43:28.440Z,20.80
2019-05-23T10:45:58.540Z,20.80
2019-05-23T10:48:30.222Z,20.80
2019-05-23T10:51:00.701Z,20.80
2019-05-23T10:53:30.578Z,20.80
2019-05-23T10:56:00.800Z,20.80
2019-05-23T10:58:31.150Z,20.80
2019-05-23T11:01:01.454Z,20.80
2019-05-23T11:03:31.816Z,20.80
2019-05-23T11:06:14.872Z,20.80
2019-05-23T11:08:34.079Z,20.80
2019-05-23T11:11:05.135Z,20.80
2019-05-23T11:13:35.590Z,20.80
2019-05-23T11:16:05.988Z,20.80
2019-05-23T11:18:36.259Z,20.80
2019-05-23T11:21:06.364Z,20.80
2019-05-23T11:23:38.072Z,20.80
2019-05-23T11:26:09.259Z,20.80
2019-05-23T11:28:39.839Z,20.80
2019-05-23T11:31:11.740Z,20.80
2019-05-23T11:33:40.998Z,20.80
2019-05-23T11:36:11.192Z,20.80
2019-05-23T11:38:41.469Z,20.80
2019-05-23T11:41:11.821Z,20.80
2019-05-23T11:43:42.126Z,20.80
2019-05-23T11:46:13.745Z,20.80
2019-05-23T11:48:44.220Z,20.80
2019-05-23T11:51:14.416Z,20.80
2019-05-23T11:53:47.033Z,20.90
2019-05-23T11:56:16.208Z,20.80
2019-05-23T11:58:46.225Z,20.80
2019-05-23T12:01:21.544Z,20.80
2019-05-23T12:03:53.321Z,20.80
2019-05-23T12:06:26.218Z,20.80
2019-05-23T12:08:55.474Z,20.80
2019-05-23T12:11:25.477Z,20.80
2019-05-23T12:13:55.414Z,20.80
2019-05-23T12:16:25.645Z,20.80
2019-05-23T12:18:55.857Z,20.80
2019-05-23T12:21:26.860Z,20.80
2019-05-23T12:23:56.788Z,20.80
2019-05-23T12:26:26.672Z,20.80
2019-05-23T12:28:56.734Z,20.90
2019-05-23T12:31:27.922Z,20.80
2019-05-23T12:33:57.920Z,20.90
2019-05-23T12:36:27.948Z,20.80
2019-05-23T12:38:58.139Z,20.90
2019-05-23T12:41:28.140Z,20.90
2019-05-23T12:43:58.003Z,20.90
2019-05-23T12:46:28.022Z,20.90
2019-05-23T12:49:02.399Z,20.90
2019-05-23T12:51:39.600Z,20.90
2019-05-23T12:54:10.049Z,20.90
2019-05-23T12:56:40.558Z,21.00
2019-05-23T12:59:10.942Z,21.00
2019-05-23T13:01:42.569Z,21.00
2019-05-23T13:04:13.131Z,21.00
2019-05-23T13:06:43.405Z,21.00
2019-05-23T13:09:13.517Z,21.00
2019-05-23T13:11:43.517Z,21.00
2019-05-23T13:14:15.041Z,21.00
2019-05-23T13:16:45.260Z,21.10
2019-05-23T13:19:16.263Z,21.10
2019-05-23T13:21:46.277Z,21.00
2019-05-23T13:24:16.357Z,21.10
2019-05-23T13:26:46.236Z,21.10
2019-05-23T13:29:16.213Z,21.10
2019-05-23T13:31:46.145Z,21.10
2019-05-23T13:34:15.995Z,21.10
2019-05-23T13:36:46.232Z,21.10
2019-05-23T13:39:18.067Z,21.10
2019-05-23T13:41:48.195Z,21.10
2019-05-23T13:44:33.031Z,21.10
2019-05-23T13:46:50.106Z,21.10
2019-05-23T13:49:20.033Z,21.10
2019-05-23T13:51:50.402Z,21.10
2019-05-23T13:54:21.012Z,21.00
2019-05-23T13:56:51.308Z,21.10
2019-05-23T13:59:21.724Z,21.10
2019-05-23T14:01:52.421Z,21.10
2019-05-23T14:04:22.636Z,21.10
2019-05-23T14:06:52.576Z,21.10
2019-05-23T14:09:23.329Z,21.10
2019-05-23T14:12:19.463Z,21.10
2019-05-23T14:14:25.521Z,21.10
2019-05-23T14:17:15.685Z,21.10
2019-05-23T14:19:45.967Z,21.10
2019-05-23T14:22:16.521Z,21.10
2019-05-23T14:24:46.671Z,21.10
2019-05-23T14:27:21.210Z,21.10
2019-05-23T14:29:51.126Z,21.10
2019-05-23T14:32:22.812Z,21.00
2019-05-23T14:34:54.651Z,21.10
2019-05-23T14:37:34.824Z,21.10
2019-05-23T14:40:06.912Z,21.10
2019-05-23T14:42:53.596Z,21.10
2019-05-23T14:45:25.473Z,21.10
2019-05-23T14:48:02.272Z,21.00
2019-05-23T14:50:33.746Z,21.10
2019-05-23T14:53:06.071Z,21.00
2019-05-23T14:55:36.252Z,21.10
2019-05-23T14:58:06.399Z,21.10
2019-05-23T15:00:38.482Z,21.00
2019-05-23T15:03:08.673Z,21.10
2019-05-23T15:05:39.089Z,21.00
2019-05-23T15:08:09.006Z,21.00
2019-05-23T15:10:39.319Z,21.00
2019-05-23T15:13:10.213Z,21.00
2019-05-23T15:15:40.256Z,21.00
2019-05-23T15:18:10.523Z,21.00
2019-05-23T15:20:40.468Z,21.00
2019-05-23T15:23:10.415Z,21.00
2019-05-23T15:25:40.542Z,21.00
2019-05-23T15:28:10.691Z,21.00
2019-05-23T15:30:40.776Z,21.00
2019-05-23T15:33:10.717Z,21.00
2019-05-23T15:35:40.848Z,21.00
2019-05-23T15:38:10.798Z,21.00
2019-05-23T15:40:40.932Z,21.00
2019-05-23T15:43:10.988Z,21.00
2019-05-23T15:45:40.911Z,21.00
2019-05-23T15:48:10.855Z,21.00
2019-05-23T15:50:51.573Z,21.00
2019-05-23T15:53:39.369Z,21.00
2019-05-23T15:56:26.868Z,21.00
2019-05-23T15:59:00.358Z,21.00
2019-05-23T16:01:34.436Z,21.00
2019-05-23T16:04:06.685Z,21.00
2019-05-23T16:06:37.485Z,21.00
2019-05-23T16:09:27.515Z,21.00
2019-05-23T16:11:43.094Z,21.00
2019-05-23T16:14:13.316Z,21.00
2019-05-23T16:16:43.336Z,21.00
2019-05-23T16:19:13.321Z,21.00
2019-05-23T16:21:43.625Z,21.00
2019-05-23T16:24:14.825Z,21.00
2019-05-23T16:26:46.032Z,21.00
2019-05-23T16:29:16.418Z,21.00
2019-05-23T16:31:46.592Z,21.00
2019-05-23T16:34:16.619Z,21.00
2019-05-23T16:36:46.626Z,21.00
2019-05-23T16:39:17.410Z,21.00
2019-05-23T16:41:47.420Z,21.00
2019-05-23T16:44:17.416Z,21.00
2019-05-23T16:46:47.462Z,21.00
2019-05-23T16:49:17.379Z,21.00
2019-05-23T16:51:47.388Z,21.00
2019-05-23T16:54:19.114Z,21.00
2019-05-23T16:56:59.800Z,21.00
2019-05-23T16:59:31.478Z,21.10
2019-05-23T17:02:08.632Z,21.00
2019-05-23T17:04:40.211Z,21.10
2019-05-23T17:07:28.055Z,21.10
2019-05-23T17:10:08.621Z,21.20
2019-05-23T17:12:35.632Z,21.20
2019-05-23T17:15:14.860Z,21.20
2019-05-23T17:18:02.735Z,21.20
2019-05-23T17:20:28.719Z,21.20
2019-05-23T17:23:09.016Z,21.20
2019-05-23T17:25:43.415Z,21.20
2019-05-23T17:28:15.049Z,21.20
2019-05-23T17:30:55.665Z,21.20
2019-05-23T17:33:25.928Z,21.20
2019-05-23T17:35:56.599Z,21.20
2019-05-23T17:38:27.186Z,21.20
2019-05-23T17:40:57.151Z,21.10
2019-05-23T17:43:27.340Z,21.10
2019-05-23T17:45:57.379Z,21.10
2019-05-23T17:48:27.426Z,21.10
2019-05-23T17:50:57.361Z,21.00
2019-05-23T17:53:27.841Z,21.00
2019-05-23T17:55:58.378Z,21.00
2019-05-23T17:58:28.449Z,21.00
2019-05-23T18:00:59.094Z,21.00
2019-05-23T18:03:29.145Z,20.90
2019-05-23T18:06:00.806Z,21.00
2019-05-23T18:08:31.819Z,21.00
2019-05-23T18:11:02.055Z,21.00
2019-05-23T18:13:32.182Z,21.00
2019-05-23T18:16:02.342Z,21.00
2019-05-23T18:18:32.954Z,20.90
2019-05-23T18:21:03.412Z,20.90
2019-05-23T18:23:33.685Z,20.90
2019-05-23T18:26:05.513Z,20.90
2019-05-23T18:28:36.113Z,20.90
2019-05-23T18:31:12.212Z,20.90
2019-05-23T18:33:43.220Z,20.90
2019-05-23T18:36:14.317Z,20.90
2019-05-23T18:38:44.879Z,20.90
2019-05-23T18:41:14.973Z,20.90
2019-05-23T18:43:45.471Z,20.90
2019-05-23T18:46:17.061Z,20.90
2019-05-23T18:48:47.119Z,20.90
2019-05-23T18:51:17.134Z,20.90
2019-05-23T18:53:47.137Z,20.90
2019-05-23T18:56:17.615Z,20.90
2019-05-23T18:58:48.265Z,20.90
2019-05-23T19:01:19.753Z,20.90
2019-05-23T19:03:49.772Z,20.90
2019-05-23T19:06:20.522Z,20.90
2019-05-23T19:08:50.915Z,20.90
2019-05-23T19:11:21.956Z,20.90
2019-05-23T19:13:52.058Z,20.80
2019-05-23T19:16:22.076Z,20.90
2019-05-23T19:18:52.218Z,20.90
2019-05-23T19:21:22.480Z,20.80
2019-05-23T19:23:52.417Z,20.80
2019-05-23T19:26:22.827Z,20.90
2019-05-23T19:28:53.137Z,20.90
2019-05-23T19:31:23.727Z,20.80
2019-05-23T19:33:53.722Z,20.80
2019-05-23T19:36:24.012Z,20.80
2019-05-23T19:38:54.071Z,20.80
2019-05-23T19:41:36.940Z,20.90
2019-05-23T19:43:56.582Z,20.80
2019-05-23T19:46:26.608Z,20.80
2019-05-23T19:48:57.542Z,20.80
2019-05-23T19:51:27.638Z,20.80
2019-05-23T19:53:57.988Z,20.80
2019-05-23T19:56:27.966Z,20.80
2019-05-23T19:58:58.020Z,20.80
2019-05-23T20:01:32.295Z,20.80
2019-05-23T20:04:02.998Z,20.80
2019-05-23T20:06:33.059Z,20.80
2019-05-23T20:09:05.204Z,20.80
2019-05-23T20:11:35.353Z,20.80
2019-05-23T20:14:05.374Z,20.80
2019-05-23T20:16:35.743Z,20.80
2019-05-23T20:19:06.624Z,20.80
2019-05-23T20:21:36.610Z,20.80
2019-05-23T20:24:06.688Z,20.80
2019-05-23T20:26:36.641Z,20.80
2019-05-23T20:29:06.623Z,20.80
2019-05-23T20:31:36.752Z,20.90
2019-05-23T20:34:07.664Z,20.90
2019-05-23T20:36:38.757Z,20.90
2019-05-23T20:39:08.771Z,20.80
2019-05-23T20:41:39.402Z,20.90
2019-05-23T20:44:09.473Z,20.90
2019-05-23T20:46:40.328Z,20.90
2019-05-23T20:49:10.264Z,20.80
2019-05-23T20:51:40.646Z,20.80
2019-05-23T20:54:10.714Z,20.90
2019-05-23T20:56:40.663Z,20.90
2019-05-23T20:59:10.912Z,20.90
2019-05-23T21:01:42.333Z,20.90
2019-05-23T21:04:12.426Z,20.90
2019-05-23T21:06:42.360Z,20.80
2019-05-23T21:09:15.531Z,20.90
2019-05-23T21:11:43.880Z,20.80
2019-05-23T21:14:13.937Z,20.90
2019-05-23T21:16:43.801Z,20.90
2019-05-23T21:19:13.657Z,20.90
2019-05-23T21:21:43.581Z,20.90
2019-05-23T21:24:13.445Z,20.90
2019-05-23T21:26:43.292Z,20.90
2019-05-23T21:29:13.260Z,20.90
2019-05-23T21:31:43.240Z,20.90
2019-05-23T21:34:13.399Z,20.90
2019-05-23T21:36:43.471Z,20.90
2019-05-23T21:39:14.255Z,20.90
2019-05-23T21:41:44.401Z,20.90
2019-05-23T21:44:14.338Z,20.90
2019-05-23T21:46:44.185Z,20.90
2019-05-23T21:49:14.202Z,20.90
2019-05-23T21:51:44.150Z,20.90
2019-05-23T21:54:14.405Z,20.90
2019-05-23T21:56:44.277Z,20.90
2019-05-23T21:59:26.349Z,20.90
2019-05-23T22:01:59.853Z,20.90
2019-05-23T22:04:31.413Z,20.90
2019-05-23T22:07:01.424Z,20.90
2019-05-23T22:09:31.657Z,20.90
2019-05-23T22:12:02.218Z,20.90
2019-05-23T22:14:32.473Z,20.90
2019-05-23T22:17:02.480Z,20.90
2019-05-23T22:19:33.630Z,20.90
2019-05-23T22:22:04.161Z,20.90
2019-05-23T22:24:34.069Z,20.90
2019-05-23T22:27:05.937Z,20.90
2019-05-23T22:29:35.911Z,20.90
2019-05-23T22:32:07.767Z,20.90
2019-05-23T22:34:39.076Z,20.90
2019-05-23T22:37:10.615Z,20.90
2019-05-23T22:39:40.710Z,20.90
2019-05-23T22:42:11.292Z,20.90
2019-05-23T22:44:41.481Z,20.90
2019-05-23T22:47:11.657Z,20.90
2019-05-23T22:49:41.497Z,20.90
2019-05-23T22:52:12.575Z,20.90
2019-05-23T22:54:42.566Z,20.90
2019-05-23T22:57:12.484Z,20.90
2019-05-23T22:59:42.429Z,20.90
2019-05-23T23:02:13.398Z,20.90
2019-05-23T23:04:43.410Z,20.90
2019-05-23T23:07:13.582Z,20.90
2019-05-23T23:09:43.530Z,20.90
2019-05-23T23:12:13.595Z,20.90
2019-05-23T23:14:43.521Z,20.90
2019-05-23T23:17:13.518Z,20.90
2019-05-23T23:19:43.524Z,20.90
2019-05-23T23:22:13.719Z,20.90
2019-05-23T23:24:43.662Z,20.90
2019-05-23T23:27:13.586Z,20.90
2019-05-23T23:29:44.594Z,20.90
2019-05-23T23:32:14.671Z,20.90
2019-05-23T23:34:44.518Z,20.90
2019-05-23T23:37:15.352Z,20.90
2019-05-23T23:39:45.228Z,20.90
2019-05-23T23:42:15.284Z,20.90
2019-05-23T23:44:44.439Z,20.90
2019-05-23T23:47:32.588Z,20.90
2019-05-23T23:50:20.728Z,20.90
2019-05-23T23:53:08.750Z,20.90
2019-05-23T23:55:56.817Z,20.90
2019-05-23T23:58:26.225Z,20.90
